Time;durP1;ratioP1;P1;durP2;ratioP2;P2;SDS_P1;SDS_P2;PMS_P1;PMS_P2;Temp;Humidity;BMP_temperature;BMP_pressure;BME280_temperature;BME280_humidity;BME280_pressure;Samples;Min_cycle;Max_cycle;Signal;HPM_P1;HPM_P2
2021/12/26 00:01:02;;;;;;;3.15;2.38;;;-5.30;99.90;;;;;;4972143;28;20047;-77
2021/12/26 00:03:30;;;;;;;4.25;2.90;;;-5.20;99.90;;;;;;4972936;28;20077;-77
2021/12/26 00:05:57;;;;;;;3.35;2.78;;;-5.30;99.90;;;;;;4968967;28;20137;-76
2021/12/26 00:08:24;;;;;;;4.43;2.90;;;-5.30;99.90;;;;;;4970985;28;20454;-76
2021/12/26 00:10:50;;;;;;;3.08;2.55;;;-5.50;99.90;;;;;;4972397;28;20046;-77
2021/12/26 00:13:18;;;;;;;4.75;3.08;;;-5.40;99.90;;;;;;4963841;28;20093;-76
2021/12/26 00:15:43;;;;;;;3.63;3.17;;;-5.40;99.90;;;;;;4970277;28;20047;-76
2021/12/26 00:18:10;;;;;;;3.53;2.63;;;-5.40;99.90;;;;;;4969584;28;20138;-75
2021/12/26 00:20:40;;;;;;;5.35;2.63;;;-5.30;99.90;;;;;;4967560;28;20441;-76
2021/12/26 00:23:06;;;;;;;3.42;2.65;;;-5.30;99.90;;;;;;4973634;28;20042;-76
2021/12/26 00:25:33;;;;;;;3.28;2.88;;;;;;;;;;4968503;28;20491;-77
2021/12/26 00:28:00;;;;;;;2.80;2.60;;;-5.30;99.90;;;;;;4971121;28;20088;-76
2021/12/26 00:30:26;;;;;;;5.53;3.00;;;-5.30;99.90;;;;;;4967135;28;20082;-76
2021/12/26 00:32:52;;;;;;;4.70;2.80;;;-5.30;99.90;;;;;;4987045;28;21733;-76
2021/12/26 00:35:19;;;;;;;4.35;2.95;;;-5.30;99.90;;;;;;4971517;28;20055;-77
2021/12/26 00:37:46;;;;;;;4.70;2.83;;;-5.30;99.90;;;;;;4971654;28;20058;-77
2021/12/26 00:40:13;;;;;;;6.57;2.97;;;-5.40;99.90;;;;;;4964126;28;20088;-76
2021/12/26 00:42:40;;;;;;;5.05;2.92;;;-5.50;99.90;;;;;;4968759;28;20051;-77
2021/12/26 00:45:07;;;;;;;4.47;2.90;;;-5.40;99.90;;;;;;4970841;28;20030;-76
2021/12/26 00:47:33;;;;;;;3.20;2.67;;;-5.40;99.90;;;;;;4970834;28;20053;-77
2021/12/26 00:49:59;;;;;;;4.50;3.00;;;-5.40;99.90;;;;;;4969173;28;20047;-76
2021/12/26 00:52:25;;;;;;;5.60;3.05;;;-5.30;99.90;;;;;;4985113;28;20046;-76
2021/12/26 00:54:51;;;;;;;3.47;2.72;;;-5.30;99.90;;;;;;4967597;28;20081;-77
2021/12/26 00:57:16;;;;;;;4.15;2.72;;;-5.40;99.90;;;;;;4968729;28;20082;-77
2021/12/26 00:59:42;;;;;;;4.43;3.10;;;-5.40;99.90;;;;;;4969963;28;20051;-76
2021/12/26 01:02:08;;;;;;;4.50;2.85;;;-5.40;99.90;;;;;;4966074;28;20038;-76
2021/12/26 01:04:33;;;;;;;5.95;2.92;;;-5.40;99.90;;;;;;4962638;28;20055;-76
2021/12/26 01:07:06;;;;;;;3.00;2.70;;;-5.20;99.90;;;;;;4969972;28;20042;-76
2021/12/26 01:09:32;;;;;;;3.10;2.78;;;;;;;;;;4973715;28;20061;-76
2021/12/26 01:12:01;;;;;;;5.13;2.92;;;;;;;;;;4967715;28;20054;-76
2021/12/26 01:14:31;;;;;;;3.38;2.53;;;-5.20;99.90;;;;;;4970079;28;20042;-76
2021/12/26 01:17:11;;;;;;;3.20;2.67;;;-5.20;99.90;;;;;;4968093;28;20117;-76
2021/12/26 01:19:47;;;;;;;4.32;2.67;;;-5.30;99.90;;;;;;4969035;28;20396;-76
2021/12/26 01:22:13;;;;;;;3.67;2.60;;;-5.20;99.90;;;;;;4966670;28;20081;-76
2021/12/26 01:24:39;;;;;;;3.72;2.85;;;-5.30;99.90;;;;;;4975006;28;20475;-76
2021/12/26 01:27:06;;;;;;;3.53;3.08;;;-5.30;99.90;;;;;;4969270;28;20495;-76
2021/12/26 01:29:32;;;;;;;4.13;3.10;;;-5.30;99.90;;;;;;4971715;28;20054;-76
2021/12/26 01:31:57;;;;;;;4.35;2.78;;;-5.30;99.90;;;;;;4973236;28;20042;-76
2021/12/26 01:34:23;;;;;;;4.13;3.05;;;-5.40;99.90;;;;;;4975855;28;20521;-76
2021/12/26 01:36:49;;;;;;;3.63;2.50;;;-5.50;99.90;;;;;;4973875;28;20047;-76
2021/12/26 01:39:15;;;;;;;3.72;2.80;;;-5.50;99.90;;;;;;4970638;28;20038;-76
2021/12/26 01:41:42;;;;;;;3.22;2.75;;;-5.40;99.90;;;;;;4972881;28;20051;-76
2021/12/26 01:44:11;;;;;;;3.35;2.90;;;-5.50;99.90;;;;;;4992414;28;20050;-76
2021/12/26 01:46:37;;;;;;;3.15;2.53;;;-5.50;99.90;;;;;;4968616;28;20043;-77
2021/12/26 01:49:07;;;;;;;5.05;2.58;;;-5.60;99.90;;;;;;4967415;28;20528;-77
2021/12/26 01:51:33;;;;;;;3.35;2.40;;;-5.50;99.90;;;;;;4972091;28;20439;-76
2021/12/26 01:54:04;;;;;;;5.07;2.85;;;-5.40;99.90;;;;;;4972916;28;20136;-76
2021/12/26 01:56:30;;;;;;;3.95;2.53;;;-5.50;99.90;;;;;;4988544;28;20055;-77
2021/12/26 01:58:57;;;;;;;3.30;3.00;;;-5.50;99.90;;;;;;4965763;28;20714;-76
2021/12/26 02:01:23;;;;;;;3.22;2.50;;;-5.60;99.90;;;;;;4970822;28;20046;-76
2021/12/26 02:03:48;;;;;;;3.67;2.75;;;-5.60;99.90;;;;;;4972658;28;20031;-76
2021/12/26 02:06:14;;;;;;;4.13;2.80;;;-5.50;99.90;;;;;;4970021;28;20050;-76
2021/12/26 02:08:40;;;;;;;3.30;2.50;;;-5.60;99.90;;;;;;4972312;28;20122;-76
2021/12/26 02:11:06;;;;;;;6.93;2.60;;;-5.70;99.90;;;;;;4972189;28;20054;-76
2021/12/26 02:13:33;;;;;;;3.05;2.67;;;-5.70;99.90;;;;;;4972902;28;20506;-76
2021/12/26 02:15:59;;;;;;;4.25;2.88;;;-5.70;99.90;;;;;;4985532;28;20418;-76
2021/12/26 02:18:25;;;;;;;2.92;2.58;;;-5.70;99.90;;;;;;4969512;28;20058;-76
2021/12/26 02:21:22;;;;;;;4.10;2.80;;;-5.50;99.90;;;;;;4968555;28;20046;-76
2021/12/26 02:23:58;;;;;;;3.42;2.38;;;-5.50;99.90;;;;;;4969516;28;20856;-76
2021/12/26 02:29:08;;;;;;;2.60;2.40;;;-5.50;99.90;;;;;;4971378;28;20051;-76
2021/12/26 02:31:34;;;;;;;2.90;2.40;;;-5.50;99.90;;;;;;4971391;28;20070;-76
2021/12/26 02:33:59;;;;;;;2.63;2.40;;;-5.60;99.90;;;;;;4969296;28;20413;-76
2021/12/26 02:36:25;;;;;;;3.97;2.47;;;-5.50;99.90;;;;;;4971191;28;20043;-76
2021/12/26 02:38:51;;;;;;;3.17;2.50;;;-5.60;99.90;;;;;;4969659;28;20610;-76
2021/12/26 02:41:16;;;;;;;3.60;2.67;;;-5.60;99.90;;;;;;4970964;28;20047;-76
2021/12/26 02:43:42;;;;;;;5.65;2.40;;;-5.40;99.90;;;;;;4968029;28;20054;-76
2021/12/26 02:46:08;;;;;;;2.78;2.20;;;-5.50;99.90;;;;;;4971386;28;20419;-76
2021/12/26 02:48:38;;;;;;;2.95;2.60;;;-5.60;99.90;;;;;;4969108;28;20034;-76
2021/12/26 02:51:05;;;;;;;3.35;2.50;;;-5.60;99.90;;;;;;4974848;28;20038;-76
2021/12/26 02:53:31;;;;;;;2.72;2.50;;;-5.60;99.90;;;;;;4970121;28;20395;-76
2021/12/26 02:55:58;;;;;;;4.25;2.35;;;-5.60;99.90;;;;;;4971432;28;20043;-76
2021/12/26 02:58:24;;;;;;;4.30;2.60;;;-5.60;99.90;;;;;;4971653;28;20681;-76
2021/12/26 03:01:05;;;;;;;2.85;2.42;;;-5.60;99.90;;;;;;4969700;28;20198;-76
2021/12/26 03:03:31;;;;;;;2.78;2.47;;;-5.50;99.90;;;;;;4972129;28;20043;-76
2021/12/26 03:06:02;;;;;;;3.22;2.40;;;-5.60;99.90;;;;;;4986983;28;20050;-76
2021/12/26 03:08:28;;;;;;;2.83;2.58;;;-5.70;99.90;;;;;;4972929;28;20051;-76
2021/12/26 03:10:54;;;;;;;4.50;2.80;;;-5.70;99.90;;;;;;4970291;28;20043;-76
2021/12/26 03:13:21;;;;;;;3.63;2.50;;;-5.60;99.90;;;;;;4974985;28;20383;-76
2021/12/26 03:15:47;;;;;;;2.40;2.20;;;-5.60;99.90;;;;;;4985818;28;20054;-76
2021/12/26 03:18:13;;;;;;;3.40;2.65;;;-5.70;99.90;;;;;;4972397;28;20051;-76
2021/12/26 03:20:42;;;;;;;2.30;2.10;;;-5.70;99.90;;;;;;4971605;28;20502;-76
2021/12/26 03:23:11;;;;;;;4.97;2.45;;;-5.70;99.90;;;;;;4970232;28;20483;-76
2021/12/26 03:25:37;;;;;;;2.65;2.38;;;-5.70;99.90;;;;;;4970245;28;20121;-76
2021/12/26 03:28:04;;;;;;;4.93;2.40;;;-5.80;99.90;;;;;;4972245;28;20209;-76
2021/12/26 03:30:31;;;;;;;2.20;2.00;;;-5.80;99.90;;;;;;4969535;28;20042;-76
2021/12/26 03:32:59;;;;;;;3.35;2.65;;;-5.80;99.90;;;;;;4970455;28;20047;-76
2021/12/26 03:35:26;;;;;;;2.72;2.47;;;-5.80;99.90;;;;;;4968449;28;20058;-76
2021/12/26 03:37:53;;;;;;;3.17;2.28;;;-5.80;99.90;;;;;;4969259;28;20038;-76
2021/12/26 03:40:18;;;;;;;3.03;2.45;;;-5.70;99.90;;;;;;4971673;28;20054;-76
2021/12/26 03:42:44;;;;;;;2.90;2.33;;;-5.70;99.90;;;;;;4972068;28;20066;-76
2021/12/26 03:45:10;;;;;;;2.80;2.22;;;;;;;;;;4973907;28;20073;-76
2021/12/26 03:47:37;;;;;;;4.65;2.63;;;-5.70;99.90;;;;;;4972048;28;20126;-76
2021/12/26 03:50:05;;;;;;;6.88;2.80;;;-5.70;99.90;;;;;;4967436;28;20062;-76
2021/12/26 03:52:31;;;;;;;3.40;2.40;;;-5.80;99.90;;;;;;4970721;28;20046;-76
2021/12/26 03:54:56;;;;;;;4.43;3.40;;;-5.90;99.90;;;;;;4971412;28;20045;-76
2021/12/26 03:57:22;;;;;;;2.85;2.40;;;-5.90;99.90;;;;;;4968374;28;20055;-76
2021/12/26 03:59:47;;;;;;;2.50;2.30;;;-5.90;99.90;;;;;;4968637;28;20057;-76
2021/12/26 04:02:15;;;;;;;2.88;2.22;;;-5.80;99.90;;;;;;4969033;28;20399;-76
2021/12/26 04:04:42;;;;;;;4.32;2.20;;;-5.80;99.90;;;;;;4970052;28;20046;-75
2021/12/26 04:07:08;;;;;;;2.38;2.17;;;-5.90;99.90;;;;;;4969588;28;20034;-76
2021/12/26 04:09:34;;;;;;;3.08;2.55;;;-5.90;99.90;;;;;;4970471;28;20046;-76
2021/12/26 04:12:00;;;;;;;3.42;2.30;;;-5.90;99.90;;;;;;4969074;28;20558;-76
2021/12/26 04:14:26;;;;;;;2.95;2.47;;;-5.90;99.90;;;;;;4970507;28;20155;-76
2021/12/26 04:16:52;;;;;;;2.58;2.38;;;-6.00;99.90;;;;;;4970932;28;20057;-76
2021/12/26 04:19:17;;;;;;;3.03;2.35;;;-5.90;99.90;;;;;;4969744;28;20042;-76
2021/12/26 04:21:43;;;;;;;4.78;2.60;;;-5.80;99.90;;;;;;4969526;28;20045;-76
2021/12/26 04:24:09;;;;;;;2.83;2.25;;;-5.70;99.90;;;;;;4969907;28;20051;-76
2021/12/26 04:26:34;;;;;;;2.50;2.30;;;-5.70;99.90;;;;;;4969236;28;20089;-76
2021/12/26 04:29:00;;;;;;;3.63;2.30;;;-5.90;99.90;;;;;;4968427;28;20458;-76
2021/12/26 04:31:26;;;;;;;3.83;2.42;;;-5.90;99.90;;;;;;4969982;28;20046;-76
2021/12/26 04:33:51;;;;;;;5.13;2.75;;;-5.90;99.90;;;;;;4968323;28;20113;-76
2021/12/26 04:36:18;;;;;;;4.20;2.55;;;-6.00;99.90;;;;;;4971316;28;20047;-76
2021/12/26 04:38:44;;;;;;;4.35;2.60;;;-6.00;99.90;;;;;;4967707;28;20486;-76
2021/12/26 04:41:11;;;;;;;4.50;2.50;;;-5.90;99.90;;;;;;4975063;28;20046;-76
2021/12/26 04:43:37;;;;;;;3.08;2.30;;;-6.00;99.90;;;;;;4968828;28;20071;-76
2021/12/26 04:46:07;;;;;;;2.83;2.30;;;-6.00;99.90;;;;;;4972231;28;20054;-76
2021/12/26 04:48:35;;;;;;;3.25;2.50;;;-6.00;99.90;;;;;;4966396;28;20049;-76
2021/12/26 04:51:02;;;;;;;3.42;2.30;;;-6.10;99.90;;;;;;4970944;28;20038;-76
2021/12/26 04:53:28;;;;;;;3.00;2.38;;;-5.90;99.90;;;;;;4968272;28;20652;-76
2021/12/26 04:55:53;;;;;;;2.95;2.33;;;-6.00;99.90;;;;;;4983975;28;20082;-75
2021/12/26 04:58:19;;;;;;;3.05;2.40;;;-6.00;99.90;;;;;;4966966;28;20129;-76
2021/12/26 05:00:45;;;;;;;3.83;2.60;;;-6.10;99.90;;;;;;4968657;28;20505;-76
2021/12/26 05:03:11;;;;;;;3.55;2.67;;;-6.20;99.90;;;;;;4969381;28;20034;-76
2021/12/26 05:05:37;;;;;;;6.57;2.72;;;-6.10;99.90;;;;;;4983271;28;20120;-76
2021/12/26 05:08:04;;;;;;;3.17;2.40;;;-6.10;99.90;;;;;;4969508;28;20054;-76
2021/12/26 05:10:30;;;;;;;3.10;2.65;;;-6.10;99.90;;;;;;4968682;28;20482;-76
2021/12/26 05:13:01;;;;;;;2.55;2.35;;;-6.00;99.90;;;;;;4969525;28;20043;-76
2021/12/26 05:15:27;;;;;;;3.60;2.45;;;-6.00;99.90;;;;;;4969378;28;20141;-76
2021/12/26 05:17:54;;;;;;;3.58;2.53;;;-6.00;99.90;;;;;;4965114;28;20043;-76
2021/12/26 05:20:21;;;;;;;3.25;2.53;;;-6.00;99.90;;;;;;4985052;28;20425;-76
2021/12/26 05:22:48;;;;;;;2.40;2.20;;;-6.00;99.90;;;;;;4964053;28;20050;-76
2021/12/26 05:25:14;;;;;;;2.65;2.15;;;-6.00;99.90;;;;;;4969615;28;20093;-76
2021/12/26 05:27:40;;;;;;;2.70;2.50;;;-6.00;99.90;;;;;;4965783;28;20063;-76
2021/12/26 05:30:08;;;;;;;2.70;2.30;;;-6.00;99.90;;;;;;4967943;28;20545;-76
2021/12/26 05:32:34;;;;;;;2.70;2.45;;;-5.90;99.90;;;;;;4969967;28;20079;-76
2021/12/26 05:35:00;;;;;;;2.38;2.15;;;-6.00;99.90;;;;;;4968138;28;20086;-76
2021/12/26 05:37:25;;;;;;;2.90;2.40;;;-6.00;99.90;;;;;;4968878;28;20089;-76
2021/12/26 05:39:51;;;;;;;3.17;2.35;;;-6.00;99.90;;;;;;4968126;28;20479;-76
2021/12/26 05:42:17;;;;;;;3.15;2.42;;;-6.00;99.90;;;;;;4969930;28;20047;-76
2021/12/26 05:44:43;;;;;;;2.78;2.22;;;-6.20;99.90;;;;;;4968366;28;20542;-76
2021/12/26 05:47:09;;;;;;;2.92;2.13;;;-6.10;99.90;;;;;;4969120;28;20055;-76
2021/12/26 05:49:35;;;;;;;3.05;2.50;;;-6.10;99.90;;;;;;4967333;28;20047;-76
2021/12/26 05:52:00;;;;;;;3.25;2.45;;;-5.90;99.90;;;;;;4969245;28;20046;-76
2021/12/26 05:54:27;;;;;;;2.53;2.10;;;-6.00;99.90;;;;;;4969417;28;20062;-77
2021/12/26 05:56:52;;;;;;;2.65;2.30;;;-6.00;99.90;;;;;;4966373;28;20078;-76
2021/12/26 05:59:18;;;;;;;2.47;2.28;;;-6.00;99.90;;;;;;4970062;28;20483;-76
2021/12/26 06:01:43;;;;;;;2.80;2.50;;;-6.10;99.90;;;;;;4964853;28;20114;-76
2021/12/26 06:04:09;;;;;;;4.03;2.53;;;-6.10;99.90;;;;;;4982975;28;20483;-76
2021/12/26 06:06:35;;;;;;;4.55;2.88;;;-6.00;99.90;;;;;;4964486;28;20050;-76
2021/12/26 06:09:00;;;;;;;2.53;2.33;;;-5.90;99.90;;;;;;4970197;28;20038;-76
2021/12/26 06:11:26;;;;;;;3.70;2.83;;;-5.90;99.90;;;;;;4969294;28;20047;-76
2021/12/26 06:13:52;;;;;;;3.30;2.50;;;-5.90;99.90;;;;;;4967500;28;20406;-76
2021/12/26 06:16:17;;;;;;;2.70;2.38;;;-5.90;99.90;;;;;;4969817;28;20050;-76
2021/12/26 06:18:43;;;;;;;2.97;2.40;;;-5.90;99.90;;;;;;4972215;28;20491;-76
2021/12/26 06:21:08;;;;;;;3.05;2.55;;;-5.80;99.90;;;;;;4987688;28;20070;-76
2021/12/26 06:23:34;;;;;;;4.35;2.50;;;-5.90;99.90;;;;;;4985579;28;20062;-76
2021/12/26 06:25:59;;;;;;;2.45;2.25;;;-5.80;99.90;;;;;;4969703;28;20043;-76
2021/12/26 06:28:25;;;;;;;3.72;2.83;;;-5.90;99.90;;;;;;4968581;28;20423;-77
2021/12/26 06:30:51;;;;;;;5.32;2.50;;;-5.90;99.90;;;;;;4972349;28;20129;-76
2021/12/26 06:33:16;;;;;;;3.15;2.70;;;-5.80;99.90;;;;;;4971723;28;20039;-76
2021/12/26 06:35:42;;;;;;;2.88;2.60;;;-5.70;99.90;;;;;;4983955;28;20581;-76
2021/12/26 06:38:07;;;;;;;2.90;2.50;;;-5.60;99.90;;;;;;4988058;28;20388;-76
2021/12/26 06:40:33;;;;;;;3.65;2.30;;;-5.70;99.90;;;;;;4969350;28;20047;-76
2021/12/26 06:42:59;;;;;;;7.22;2.72;;;-5.70;99.90;;;;;;4972177;28;20070;-76
2021/12/26 06:45:24;;;;;;;3.80;2.78;;;-5.80;99.90;;;;;;4970167;28;20073;-76
2021/12/26 06:47:52;;;;;;;2.55;2.08;;;-5.70;99.90;;;;;;4970138;28;20046;-76
2021/12/26 06:50:19;;;;;;;2.50;2.30;;;-5.70;99.90;;;;;;4973152;28;20517;-76
2021/12/26 06:52:44;;;;;;;4.28;2.53;;;-5.60;99.90;;;;;;4969615;28;20157;-76
2021/12/26 06:55:10;;;;;;;5.72;2.63;;;;;;;;;;4971220;28;20181;-76
2021/12/26 06:57:37;;;;;;;2.97;2.67;;;-5.50;99.90;;;;;;4970501;28;20059;-76
2021/12/26 07:00:15;;;;;;;3.30;2.38;;;-5.60;99.90;;;;;;4971319;28;20482;-76
2021/12/26 07:02:41;;;;;;;4.78;3.40;;;-5.60;99.90;;;;;;4972946;28;20043;-76
2021/12/26 07:05:07;;;;;;;2.72;2.47;;;-5.60;99.90;;;;;;4974118;28;20125;-76
2021/12/26 07:07:33;;;;;;;3.20;2.90;;;-5.60;99.90;;;;;;4973254;28;20126;-76
2021/12/26 07:09:59;;;;;;;3.53;2.55;;;-5.50;99.90;;;;;;4972772;28;20208;-76
2021/12/26 07:12:24;;;;;;;2.95;2.65;;;-5.60;99.90;;;;;;4984288;28;20127;-76
2021/12/26 07:14:50;;;;;;;3.72;2.33;;;-5.50;99.90;;;;;;4971651;28;20055;-76
2021/12/26 07:17:15;;;;;;;3.65;2.65;;;-5.60;99.90;;;;;;4985573;28;20153;-76
2021/12/26 07:19:41;;;;;;;3.08;2.70;;;-5.60;99.90;;;;;;4969184;28;20057;-76
2021/12/26 07:22:08;;;;;;;4.28;2.90;;;-5.70;99.90;;;;;;4970700;28;20065;-76
2021/12/26 07:24:34;;;;;;;5.70;2.72;;;-5.70;99.90;;;;;;4971295;28;20160;-76
2021/12/26 07:27:00;;;;;;;2.83;2.63;;;-5.60;99.90;;;;;;4970414;28;20485;-76
2021/12/26 07:29:25;;;;;;;2.92;2.63;;;-5.70;99.90;;;;;;4967554;28;20169;-76
2021/12/26 07:31:51;;;;;;;3.00;2.70;;;-5.70;99.90;;;;;;4972535;28;20046;-76
2021/12/26 07:34:17;;;;;;;4.22;2.83;;;-5.80;99.90;;;;;;4973075;28;20125;-76
2021/12/26 07:36:43;;;;;;;3.40;2.60;;;-5.70;99.90;;;;;;4971308;28;20047;-76
2021/12/26 07:39:08;;;;;;;3.30;2.70;;;-5.80;99.90;;;;;;4986096;28;20051;-76
2021/12/26 07:41:34;;;;;;;3.22;2.90;;;-5.80;99.90;;;;;;4987645;28;20039;-76
2021/12/26 07:44:00;;;;;;;3.97;2.60;;;-5.70;99.90;;;;;;4969273;28;20046;-76
2021/12/26 07:46:26;;;;;;;4.32;3.00;;;-5.60;99.90;;;;;;4972278;28;20078;-76
2021/12/26 07:48:52;;;;;;;5.20;3.10;;;-5.60;99.90;;;;;;4975732;28;20122;-76
2021/12/26 07:51:19;;;;;;;4.90;2.90;;;-5.60;99.90;;;;;;4972747;28;20137;-77
2021/12/26 07:53:46;;;;;;;3.40;2.75;;;-5.50;99.90;;;;;;4966676;28;20043;-76
2021/12/26 07:56:14;;;;;;;4.18;2.78;;;-5.70;99.90;;;;;;4971199;28;20050;-76
2021/12/26 07:58:40;;;;;;;3.60;2.95;;;-5.60;99.90;;;;;;4970252;28;20122;-76
2021/12/26 08:01:05;;;;;;;5.90;3.40;;;-5.60;99.90;;;;;;4969295;28;20126;-76
2021/12/26 08:03:34;;;;;;;4.93;3.10;;;-5.70;99.90;;;;;;4966712;28;20506;-76
2021/12/26 08:06:00;;;;;;;4.72;3.10;;;-5.60;99.90;;;;;;4967486;28;20093;-76
2021/12/26 08:08:26;;;;;;;4.80;2.95;;;-5.70;99.90;;;;;;4968606;28;20046;-76
2021/12/26 08:10:51;;;;;;;3.25;2.97;;;-5.50;99.90;;;;;;4968770;28;20035;-76
2021/12/26 08:13:17;;;;;;;5.13;3.70;;;-5.50;99.90;;;;;;4968274;28;20042;-76
2021/12/26 08:15:44;;;;;;;5.18;3.10;;;-5.50;99.90;;;;;;4974786;28;20131;-76
2021/12/26 08:18:09;;;;;;;5.03;3.15;;;-5.60;99.90;;;;;;4969259;28;20046;-76
2021/12/26 08:20:35;;;;;;;5.32;3.50;;;-5.60;99.90;;;;;;4967951;28;20514;-76
2021/12/26 08:23:01;;;;;;;4.57;3.22;;;-5.50;99.90;;;;;;4972170;28;20573;-76
2021/12/26 08:25:28;;;;;;;5.18;3.05;;;-5.60;99.90;;;;;;4967180;28;20407;-76
2021/12/26 08:27:54;;;;;;;3.33;2.67;;;-5.50;99.90;;;;;;4968703;28;20566;-76
2021/12/26 08:30:20;;;;;;;4.82;3.13;;;-5.50;99.90;;;;;;4968870;28;20042;-76
2021/12/26 08:32:50;;;;;;;3.30;3.00;;;-5.50;99.90;;;;;;4970222;28;20137;-76
2021/12/26 08:35:16;;;;;;;5.30;3.50;;;;;;;;;;4968165;28;20539;-77
2021/12/26 08:37:45;;;;;;;2.75;2.55;;;;;;;;;;4971491;28;20070;-76
2021/12/26 08:40:11;;;;;;;4.38;3.15;;;;;;;;;;4972664;28;20066;-77
2021/12/26 08:42:37;;;;;;;4.95;3.30;;;;;;;;;;4963335;28;20137;-76
2021/12/26 08:45:03;;;;;;;4.53;3.30;;;;;;;;;;4969945;28;20047;-76
2021/12/26 08:47:29;;;;;;;4.90;3.20;;;-5.50;99.90;;;;;;4968327;28;20130;-77
2021/12/26 08:49:55;;;;;;;4.43;3.30;;;-5.20;99.90;;;;;;4968022;28;20137;-76
2021/12/26 08:52:20;;;;;;;4.70;2.97;;;-4.90;99.90;;;;;;4966884;28;20127;-76
2021/12/26 08:54:46;;;;;;;6.18;4.18;;;-4.90;99.90;;;;;;4970525;28;20043;-76
2021/12/26 08:57:12;;;;;;;6.82;4.03;;;-5.00;99.90;;;;;;4967052;28;20054;-76
2021/12/26 08:59:38;;;;;;;5.40;3.80;;;-5.10;99.90;;;;;;4967775;28;20058;-76
2021/12/26 09:02:07;;;;;;;6.93;3.80;;;-5.00;99.90;;;;;;4984465;28;20051;-76
2021/12/26 09:04:33;;;;;;;7.75;5.95;;;-4.80;99.90;;;;;;4969901;28;20050;-76
2021/12/26 09:06:58;;;;;;;8.95;5.03;;;-4.90;99.90;;;;;;4984335;28;20419;-76
2021/12/26 09:09:25;;;;;;;13.20;7.25;;;-4.90;99.90;;;;;;4987770;28;20054;-74
2021/12/26 09:11:51;;;;;;;24.10;13.68;;;-4.90;99.90;;;;;;4970718;28;20857;-75
2021/12/26 09:14:17;;;;;;;10.68;6.05;;;-4.90;99.90;;;;;;4970936;28;20042;-73
2021/12/26 09:16:43;;;;;;;7.78;4.95;;;-4.80;99.90;;;;;;4970700;28;20514;-74
2021/12/26 09:19:08;;;;;;;4.57;3.10;;;-4.70;99.90;;;;;;4969309;28;20043;-75
2021/12/26 09:21:35;;;;;;;6.45;3.85;;;-4.70;99.90;;;;;;4966484;28;20046;-74
2021/12/26 09:24:02;;;;;;;6.43;3.33;;;-4.60;99.90;;;;;;4983435;28;20046;-74
2021/12/26 09:26:27;;;;;;;7.15;3.90;;;-4.60;99.90;;;;;;4983298;28;20125;-75
2021/12/26 09:28:53;;;;;;;5.25;3.70;;;-4.60;99.90;;;;;;4969795;28;20270;-74
2021/12/26 09:31:18;;;;;;;6.25;4.00;;;-4.60;99.90;;;;;;4967699;28;20046;-74
2021/12/26 09:33:44;;;;;;;11.45;6.32;;;-4.60;99.90;;;;;;4965534;28;20046;-75
2021/12/26 09:36:10;;;;;;;10.35;6.20;;;;;;;;;;4968177;28;20131;-75
2021/12/26 09:38:36;;;;;;;9.93;6.30;;;-4.50;99.90;;;;;;4967819;28;20050;-75
2021/12/26 09:41:01;;;;;;;9.00;6.40;;;-4.40;99.90;;;;;;4972276;28;20046;-75
2021/12/26 09:43:27;;;;;;;8.25;5.28;;;-4.30;99.90;;;;;;4969088;28;20174;-75
2021/12/26 09:45:53;;;;;;;12.90;9.32;;;-4.30;99.90;;;;;;4970518;28;20137;-74
2021/12/26 09:48:19;;;;;;;6.13;5.00;;;;;;;;;;4968530;28;20047;-75
2021/12/26 09:50:45;;;;;;;10.25;7.32;;;;;;;;;;4962529;28;20047;-75
2021/12/26 09:53:11;;;;;;;6.72;4.55;;;;;;;;;;4966143;28;20237;-74
2021/12/26 09:55:37;;;;;;;5.65;3.85;;;;;;;;;;4972358;28;20377;-75
2021/12/26 09:58:03;;;;;;;6.60;4.18;;;;;;;;;;4969128;28;20051;-81
2021/12/26 10:00:34;;;;;;;6.35;4.00;;;;;;;;;;4966042;28;20633;-76
2021/12/26 10:03:09;;;;;;;10.43;6.05;;;;;;;;;;4968484;28;20146;-77
2021/12/26 10:05:55;;;;;;;6.07;3.92;;;;;;;;;;4965647;28;20044;-75
2021/12/26 10:08:21;;;;;;;6.00;4.47;;;;;;;;;;4981283;28;22301;-76
2021/12/26 10:11:14;;;;;;;8.02;4.00;;;;;;;;;;4968538;28;20086;-76
2021/12/26 10:13:46;;;;;;;6.25;3.88;;;;;;;;;;4967459;28;20077;-76
2021/12/26 10:16:14;;;;;;;5.28;3.95;;;;;;;;;;4966595;28;20069;-75
2021/12/26 10:18:41;;;;;;;6.93;4.25;;;;;;;;;;4966766;28;20066;-75
2021/12/26 10:21:22;;;;;;;5.63;3.70;;;;;;;;;;4964369;28;20496;-82
2021/12/26 10:23:48;;;;;;;6.25;4.05;;;;;;;;;;4964510;28;20047;-78
2021/12/26 10:26:28;;;;;;;5.82;4.30;;;;;;;;;;4968754;28;20050;-78
2021/12/26 10:29:04;;;;;;;5.53;4.13;;;;;;;;;;4965581;28;20078;-79
2021/12/26 10:31:30;;;;;;;4.07;3.47;;;;;;;;;;4965628;28;20493;-78
2021/12/26 10:33:56;;;;;;;4.53;3.53;;;;;;;;;;4966135;28;20174;-77
2021/12/26 10:36:22;;;;;;;6.63;3.83;;;;;;;;;;4966044;28;20046;-77
2021/12/26 10:39:06;;;;;;;5.65;3.63;;;;;;;;;;4964724;28;20058;-77
2021/12/26 10:41:32;;;;;;;5.63;3.60;;;;;;;;;;4965197;28;20145;-77
2021/12/26 10:43:58;;;;;;;5.00;3.67;;;;;;;;;;4963877;28;20038;-76
2021/12/26 10:46:24;;;;;;;7.07;4.10;;;;;;;;;;4964661;28;20656;-76
2021/12/26 10:48:50;;;;;;;5.35;3.50;;;;;;;;;;4963692;28;20047;-76
2021/12/26 10:51:32;;;;;;;4.95;3.72;;;;;;;;;;4966359;28;20043;-78
2021/12/26 10:54:15;;;;;;;3.95;3.10;;;;;;;;;;4967026;28;20038;-80
2021/12/26 10:56:41;;;;;;;4.45;3.72;;;;;;;;;;4964823;28;20046;-79
2021/12/26 10:59:20;;;;;;;5.47;3.78;;;-4.20;99.90;;;;;;4963913;28;20496;-80
2021/12/26 11:01:45;;;;;;;7.47;4.53;;;-2.40;99.90;;;;;;4964491;28;20109;-79
2021/12/26 11:04:12;;;;;;;5.15;3.78;;;-2.40;99.90;;;;;;4967200;28;20073;-79
2021/12/26 11:06:58;;;;;;;5.78;4.00;;;-2.40;99.90;;;;;;4966927;28;20057;-77
2021/12/26 11:09:24;;;;;;;4.70;3.70;;;-2.40;99.90;;;;;;4966986;28;20051;-77
2021/12/26 11:12:07;;;;;;;6.03;4.07;;;-2.20;99.90;;;;;;4966396;28;20050;-77
2021/12/26 11:14:54;;;;;;;4.72;4.00;;;-2.10;99.90;;;;;;4963116;28;20174;-78
2021/12/26 11:17:33;;;;;;;6.07;4.70;;;;;;;;;;4978926;28;20558;-77
2021/12/26 11:19:59;;;;;;;6.43;4.13;;;;;;;;;;4959623;28;20113;-77
2021/12/26 11:22:26;;;;;;;4.95;3.90;;;;;;;;;;4965111;28;20039;-76
2021/12/26 11:24:57;;;;;;;8.75;4.00;;;-2.20;99.90;;;;;;4965580;28;20105;-76
2021/12/26 11:27:23;;;;;;;5.38;3.88;;;;;;;;;;4969177;28;20551;-77
2021/12/26 11:29:49;;;;;;;5.93;3.92;;;;;;;;;;4965242;28;20169;-75
2021/12/26 11:32:16;;;;;;;6.65;4.70;;;;;;;;;;4958949;28;20051;-74
2021/12/26 11:34:45;;;;;;;6.53;4.78;;;-2.00;99.90;;;;;;4974096;28;20035;-76
2021/12/26 11:37:11;;;;;;;4.72;4.05;;;-1.90;99.90;;;;;;4970234;28;20047;-75
2021/12/26 11:39:39;;;;;;;8.02;4.40;;;-2.00;99.90;;;;;;4985345;28;20041;-78
2021/12/26 11:42:04;;;;;;;6.70;4.70;;;-1.90;99.90;;;;;;4964907;28;20043;-77
2021/12/26 11:45:12;;;;;;;6.30;4.32;;;-1.90;99.90;;;;;;4972443;28;20070;-76
2021/12/26 11:48:24;;;;;;;6.85;4.60;;;-1.80;99.90;;;;;;4964759;28;20046;-77
2021/12/26 11:51:17;;;;;;;5.43;4.38;;;-1.70;99.90;;;;;;4969302;28;20050;-76
2021/12/26 11:53:55;;;;;;;8.18;4.63;;;;;;;;;;4969811;28;20058;-77
2021/12/26 11:56:52;;;;;;;7.75;4.78;;;-1.60;99.90;;;;;;4966817;28;20127;-77
2021/12/26 11:59:47;;;;;;;6.43;4.03;;;-1.30;99.90;;;;;;4981506;28;20061;-75
2021/12/26 12:02:32;;;;;;;6.47;4.20;;;-1.40;99.90;;;;;;4960831;28;20477;-76
2021/12/26 12:05:14;;;;;;;6.47;4.78;;;-1.40;99.90;;;;;;4962742;28;20034;-78
2021/12/26 12:08:08;;;;;;;4.78;4.13;;;-1.20;99.90;;;;;;4965127;28;20054;-79
2021/12/26 12:10:52;;;;;;;8.70;6.50;;;-1.30;99.90;;;;;;4961397;28;20499;-77
2021/12/26 12:13:26;;;;;;;7.13;4.72;;;-1.30;99.90;;;;;;4963898;28;20051;-76
2021/12/26 12:15:54;;;;;;;5.60;4.25;;;-1.30;99.90;;;;;;4963538;28;20039;-76
2021/12/26 12:18:26;;;;;;;6.47;5.35;;;-1.20;99.90;;;;;;4964478;28;20054;-77
2021/12/26 12:21:21;;;;;;;5.60;4.80;;;-1.20;99.90;;;;;;4961838;28;20042;-76
2021/12/26 12:24:02;;;;;;;5.93;4.72;;;;;;;;;;4963453;28;20051;-76
2021/12/26 12:26:52;;;;;;;5.95;4.53;;;;;;;;;;4962862;28;20113;-76
2021/12/26 12:29:30;;;;;;;7.75;5.18;;;;;;;;;;4964699;28;20039;-77
2021/12/26 12:32:08;;;;;;;7.68;5.50;;;;;;;;;;4964116;28;20101;-82
2021/12/26 12:34:53;;;;;;;7.35;5.30;;;;;;;;;;4967034;28;20086;-76
2021/12/26 12:37:28;;;;;;;7.18;5.43;;;;;;;;;;4970533;28;20039;-76
2021/12/26 12:40:12;;;;;;;8.07;5.50;;;;;;;;;;4962676;28;20471;-76
2021/12/26 12:42:40;;;;;;;6.47;5.35;;;-1.00;99.90;;;;;;4963717;28;20510;-76
2021/12/26 12:45:06;;;;;;;6.93;5.10;;;;;;;;;;4963070;28;20039;-77
2021/12/26 12:47:32;;;;;;;8.45;5.55;;;;;;;;;;4963554;28;20622;-76
2021/12/26 12:50:03;;;;;;;6.03;4.60;;;;;;;;;;4965090;28;20047;-77
2021/12/26 12:52:36;;;;;;;7.38;5.28;;;;;;;;;;4964766;28;20043;-76
2021/12/26 12:55:04;;;;;;;6.50;5.20;;;;;;;;;;4963909;28;20047;-77
2021/12/26 12:57:37;;;;;;;8.63;5.50;;;;;;;;;;4960815;28;20050;-77
2021/12/26 13:00:03;;;;;;;;;;;;;;;;;;4963978;28;20042;-77
2021/12/26 13:02:34;;;;;;;8.20;5.25;;;;;;;;;;4965208;28;20441;-77
2021/12/26 13:05:01;;;;;;;7.88;4.60;;;;;;;;;;4963475;28;20066;-77
2021/12/26 13:07:30;;;;;;;6.50;5.10;;;;;;;;;;4962487;28;20128;-76
2021/12/26 13:09:57;;;;;;;10.07;7.95;;;;;;;;;;4967297;28;20046;-77
2021/12/26 13:12:24;;;;;;;13.32;9.05;;;;;;;;;;4964865;28;20133;-75
2021/12/26 13:15:00;;;;;;;16.50;11.05;;;;;;;;;;4967232;28;20047;-76
2021/12/26 13:17:28;;;;;;;23.40;16.05;;;;;;;;;;4965450;28;20769;-76